Latest Weather Observations for Armidale Airport

IDN60801

Issued at 3:33 pm EST Saturday 2 July 2016 (issued every 30 minutes, with the page automatically refreshed every 10 minutes)

About weather observations | Map of weather stations | Latest weather observations for NSW | Other Formats
Station Details ID: 056238 Name: ARMIDALE AIRPORT AWS Lat: -30.53 Lon: 151.62 Height: 1079.0 m
Data from the previous 72 hours. | See also: Recent months at Armidale Airport
Date/Time
EST
Temp
°C
App
Temp
°C
Dew
Point
°C
Rel
Hum
%
Delta-T
°C
Wind Press
QNH
hPa
Press
MSL
hPa
Rain since
9am
mm
Dir  Spd
km/h
Gust
km/h
Spd
kts
Gust
kts
02/03:30pm 11.6 6.5 1.0 48 4.7 W 17 24 9 13 1023.9 1024.3 0.0
02/03:00pm 11.6 6.1 0.4 46 4.9 W 19 24 10 13 1023.6 1023.9 0.0
02/02:30pm 11.6 5.5 -2.6 37 5.8 W 20 26 11 14 1023.6 1023.9 0.0
02/02:00pm 12.1 6.3 -1.4 39 5.7 WNW 19 26 10 14 1023.4 1023.7 0.0
02/01:30pm 11.7 6.8 -0.8 42 5.4 WNW 15 20 8 11 1023.5 1023.8 0.0
02/01:00pm 11.3 6.9 0.1 46 4.9 WNW 13 19 7 10 1023.7 1024.0 0.0
02/12:30pm 10.0 6.4 0.9 53 4.0 WNW 9 15 5 8 1024.1 1024.5 0.0
02/12:00pm 8.4 5.4 2.0 64 2.8 WSW 7 11 4 6 1024.5 1024.8 0.0
02/11:30am 7.7 4.8 2.4 69 2.4 NNW 7 11 4 6 1024.8 1025.2 0.0
02/11:00am 6.4 3.4 1.9 73 1.9 WSW 7 11 4 6 1025.2 1025.6 0.0
02/10:30am 4.9 3.1 3.2 89 0.8 SSW 2 6 1 3 1025.5 1025.9 0.0
02/10:17am 4.5 2.9 2.7 88 0.8 CALM 0 0 0 0 1025.5 1025.9 0.0
02/10:00am 3.1 1.6 2.8 98 0.1 CALM 0 0 0 0 1025.5 1025.9 0.0
02/09:39am 1.8 -1.1 1.7 99 0.0 ENE 6 7 3 4 1025.5 1025.9 0.0
02/09:30am 1.7 -0.4 1.6 99 0.0 NE 2 7 1 4 1025.5 1025.9 0.0
02/09:00am 0.7 -2.0 0.6 99 0.0 WSW 4 7 2 4 1025.5 1025.9 0.0
02/08:30am 0.7 -2.9 0.6 99 0.0 SW 9 11 5 6 1025.4 1025.7 0.0
02/08:00am -0.1 -3.8 -0.2 99 0.0 WSW 9 13 5 7 1025.1 1025.5 0.0
02/07:30am -0.2 -4.3 -0.3 99 0.0 SW 11 15 6 8 1025.0 1025.4 0.0
02/07:00am -0.2 -4.7 -0.3 99 0.0 SW 13 17 7 9 1024.8 1025.2 0.0
02/06:30am 0.1 -3.6 0.0 99 0.0 W 9 15 5 8 1024.4 1024.7 0.0
02/06:13am 0.1 -3.6 0.0 99 0.0 W 9 11 5 6 1024.1 1024.5 0.0
02/06:00am 0.3 -3.7 0.2 99 0.0 W 11 15 6 8 1023.9 1024.3 0.0
02/05:30am 0.3 -4.1 0.2 99 0.0 W 13 17 7 9 1023.8 1024.1 0.0
02/05:00am 0.4 -4.0 0.3 99 0.0 WSW 13 15 7 8 1023.6 1023.9 0.0
02/04:33am 0.4 -3.6 0.3 99 0.0 WSW 11 15 6 8 1023.0 1023.3 0.0
02/04:30am 0.4 -3.6 0.3 99 0.0 W 11 17 6 9 1023.0 1023.3 0.0
02/04:15am 0.4 -4.0 0.3 99 0.0 W 13 17 7 9 1023.1 1023.5 0.0
02/04:00am 0.4 -4.8 0.3 99 0.0 WSW 17 20 9 11 1022.9 1023.2 0.0
02/03:30am 0.5 -3.9 0.4 99 0.0 WSW 13 17 7 9 1022.9 1023.2 0.0
02/03:00am 0.4 -4.4 0.3 99 0.0 WSW 15 19 8 10 1022.8 1023.1 0.0
02/02:30am -0.2 -4.7 -0.5 98 0.1 W 13 17 7 9 1022.8 1023.1 0.0
02/02:00am 0.6 -3.4 0.3 98 0.1 WSW 11 15 6 8 1023.0 1023.3 0.0
02/01:30am 0.0 -4.5 -0.3 98 0.1 WNW 13 15 7 8 1023.0 1023.3 0.0
02/01:00am 0.3 -3.8 0.0 98 0.1 NW 11 13 6 7 1023.0 1023.3 0.0
02/12:30am -1.1 -3.7 -1.4 98 0.1 W 2 9 1 5 1022.5 1022.8 0.0
02/12:29am -1.3 -3.9 -1.6 98 0.0 W 2 9 1 5 1022.5 1022.8 0.0
02/12:00am -0.7 -4.5 -1.0 98 0.1 NW 9 11 5 6 1022.4 1022.7 0.0
 
Date/Time
EST
Temp
°C
App
Temp
°C
Dew
Point
°C
Rel
Hum
%
Delta-T
°C
Wind Press
QNH
hPa
Press
MSL
hPa
Rain since
9am
mm
Dir  Spd
km/h
Gust
km/h
Spd
kts
Gust
kts
01/11:30pm -0.5 -3.9 -0.8 98 0.1 W 7 13 4 7 1022.5 1022.8 0.0
01/11:06pm 0.8 -4.9 0.5 98 0.1 WSW 20 26 11 14 1022.6 1022.9 0.0
01/11:00pm 1.3 -4.7 1.0 98 0.1 SW 22 26 12 14 1022.6 1022.9 0.0
01/10:30pm 0.5 -4.3 0.2 98 0.1 WSW 15 17 8 9 1022.7 1023.0 0.0
01/10:15pm 0.7 -3.3 0.3 97 0.2 W 11 13 6 7 1022.9 1023.2 0.0
01/10:00pm 0.8 -3.6 0.4 97 0.2 W 13 15 7 8 1022.7 1023.0 0.0
01/09:30pm 0.9 -4.3 -0.1 93 0.4 W 17 19 9 10 1022.8 1023.1 0.0
01/09:00pm 2.5 -2.6 0.9 89 0.6 WSW 17 20 9 11 1022.8 1023.1 0.0
01/08:30pm 3.1 -2.9 0.8 85 0.9 W 22 32 12 17 1022.5 1022.8 0.0
01/08:00pm 2.8 -2.3 0.5 85 0.9 W 17 20 9 11 1022.5 1022.8 0.0
01/07:30pm 3.4 -2.1 0.6 82 1.1 WSW 19 24 10 13 1021.8 1022.1 0.0
01/07:00pm 2.6 -1.8 0.5 86 0.8 W 13 15 7 8 1021.7 1022.0 0.0
01/06:30pm 3.4 -1.0 0.3 80 1.3 WSW 13 17 7 9 1021.3 1021.5 0.0
01/06:00pm 4.0 -1.5 0.5 78 1.4 W 19 22 10 12 1020.7 1021.0 0.0
01/05:30pm 4.1 -0.7 0.1 75 1.6 W 15 19 8 10 1020.5 1020.7 0.0
01/05:00pm 5.6 -0.1 0.4 69 2.2 W 20 28 11 15 1019.8 1020.0 0.0
01/04:30pm 6.9 -1.1 0.6 64 2.7 WSW 32 41 17 22 1019.5 1019.7 0.0
01/04:00pm 8.0 -0.5 1.0 61 3.0 W 35 50 19 27 1018.5 1018.7 0.0
01/03:30pm 8.6 -1.7 0.1 55 3.6 W 44 57 24 31 1017.8 1018.0 0.0
01/03:15pm 9.2 -0.6 0.1 53 3.9 W 41 59 22 32 1017.9 1018.1 0.0
01/03:00pm 9.6 -0.4 1.0 55 3.8 W 43 59 23 32 1017.4 1017.5 0.0
01/02:43pm 9.5 -1.2 0.4 53 3.9 W 46 65 25 35 1017.6 1017.8 0.0
01/02:30pm 9.6 -0.7 0.5 53 3.9 W 44 57 24 31 1017.8 1018.0 0.0
01/02:00pm 9.6 -1.1 0.0 51 4.1 WNW 46 61 25 33 1017.5 1017.7 0.0
01/01:38pm 9.5 -0.6 0.1 52 4.0 W 43 65 23 35 1017.5 1017.7 0.0
01/01:30pm 9.6 -0.4 1.0 55 3.8 W 43 56 23 30 1017.6 1017.8 0.0
01/01:00pm 9.4 -1.9 1.3 57 3.6 W 50 72 27 39 1017.7 1017.9 0.0
01/12:40pm 9.6 -0.4 0.8 54 3.8 W 43 65 23 35 1017.7 1017.9 0.0
01/12:30pm 9.7 0.2 1.6 57 3.6 W 41 52 22 28 1017.9 1018.1 0.0
01/12:00pm 8.6 -1.6 1.1 59 3.3 W 44 59 24 32 1018.1 1018.3 0.0
01/11:30am 8.5 -1.9 2.3 65 2.8 W 46 57 25 31 1018.6 1018.8 0.0
01/11:10am 7.1 -2.7 2.4 72 2.1 W 43 61 23 33 1018.7 1018.9 0.0
01/11:00am 7.4 -1.2 2.7 72 2.1 W 37 54 20 29 1018.8 1019.0 0.0
01/10:47am 7.8 -1.5 2.7 70 2.3 W 41 59 22 32 1019.0 1019.2 0.0
01/10:30am 7.6 -2.1 3.1 73 2.0 W 43 59 23 32 1019.0 1019.2 0.0
01/10:00am 7.8 -1.0 3.7 75 1.9 WNW 39 48 21 26 1019.3 1019.5 0.0
01/09:30am 6.9 -2.8 3.0 76 1.7 WNW 43 56 23 30 1019.0 1018.8 0.0
01/09:10am 6.5 -2.5 2.6 76 1.7 WNW 39 57 21 31 1019.0 1018.8 0.0
01/09:00am 6.2 -3.2 2.1 75 1.8 WNW 41 54 22 29 1019.0 1018.8 0.2
01/08:30am 5.3 -3.4 2.1 80 1.4 WNW 37 50 20 27 1018.7 1018.4 0.2
01/08:00am 4.4 -4.7 1.9 84 1.1 WNW 39 48 21 26 1018.7 1018.4 0.2
01/07:30am 3.6 -4.5 1.3 85 1.0 WNW 33 41 18 22 1018.5 1018.2 0.2
01/07:00am 3.3 -4.6 1.2 86 0.9 WNW 32 44 17 24 1017.9 1017.6 0.2
01/06:30am 3.0 -4.1 1.2 88 0.7 WNW 28 35 15 19 1017.9 1017.6 0.2
01/06:00am 3.1 -3.6 1.2 87 0.8 WNW 26 35 14 19 1017.8 1017.5 0.2
01/05:30am 3.4 -3.3 1.4 87 0.8 WNW 26 33 14 18 1017.6 1017.3 0.2
01/05:00am 3.5 -2.4 1.4 86 0.9 WNW 22 30 12 16 1017.5 1017.2 0.2
01/04:30am 3.3 -1.0 1.2 86 0.9 WNW 13 22 7 12 1017.5 1017.2 0.2
01/04:00am 3.3 -1.4 1.2 86 0.9 WNW 15 24 8 13 1017.6 1017.3 0.2
01/03:30am 3.3 -1.8 1.0 85 0.9 WNW 17 26 9 14 1017.6 1017.3 0.2
01/03:00am 3.2 -1.0 1.4 88 0.7 WNW 13 19 7 10 1017.6 1017.3 0.2
01/02:30am 3.1 -1.2 1.3 88 0.7 WNW 13 17 7 9 1017.9 1017.6 0.2
01/02:00am 3.4 -1.2 1.4 87 0.8 WNW 15 24 8 13 1018.1 1017.9 0.2
01/01:30am 3.9 -1.4 2.1 88 0.8 W 19 24 10 13 1018.6 1018.3 0.2
01/01:00am 4.2 -1.1 1.6 83 1.1 WNW 19 24 10 13 1018.7 1018.4 0.2
01/12:30am 4.7 -0.8 1.7 81 1.3 NW 20 30 11 16 1018.6 1018.3 0.2
01/12:00am 5.1 -0.7 2.1 81 1.3 NW 22 30 12 16 1018.8 1018.6 0.2
 
Date/Time
EST
Temp
°C
App
Temp
°C
Dew
Point
°C
Rel
Hum
%
Delta-T
°C
Wind Press
QNH
hPa
Press
MSL
hPa
Rain since
9am
mm
Dir  Spd
km/h
Gust
km/h
Spd
kts
Gust
kts
30/11:30pm 4.9 -0.4 2.1 82 1.2 NW 19 28 10 15 1019.0 1018.8 0.2
30/11:00pm 5.0 0.2 2.4 83 1.1 NW 17 22 9 12 1019.3 1019.0 0.2
30/10:30pm 4.9 0.0 2.3 83 1.1 NW 17 28 9 15 1019.0 1018.8 0.2
30/10:00pm 5.1 -0.1 2.3 82 1.2 NW 19 24 10 13 1019.0 1018.8 0.2
30/09:30pm 5.5 0.3 2.7 82 1.2 NW 19 26 10 14 1019.4 1019.1 0.2
30/09:00pm 5.5 0.8 3.0 84 1.1 WNW 17 22 9 12 1019.7 1019.5 0.2
30/08:30pm 5.4 0.6 2.8 83 1.1 NW 17 26 9 14 1019.8 1019.6 0.2
30/08:00pm 5.5 0.8 3.0 84 1.1 NW 17 24 9 13 1019.9 1019.7 0.2
30/07:30pm 6.0 0.6 2.5 78 1.5 NW 20 28 11 15 1019.7 1019.5 0.2
30/07:00pm 6.1 0.2 2.0 75 1.8 NW 22 32 12 17 1019.6 1019.3 0.2
30/06:30pm 6.1 0.8 1.6 73 1.9 NW 19 24 10 13 1019.8 1019.6 0.2
30/06:00pm 6.5 1.2 2.0 73 2.0 NW 19 24 10 13 1019.6 1019.3 0.2
30/05:30pm 7.2 2.0 2.3 71 2.2 WNW 19 26 10 14 1019.7 1019.5 0.2
30/05:00pm 7.7 1.8 2.0 67 2.5 NW 22 30 12 16 1019.6 1019.3 0.2
30/04:30pm 8.2 3.0 2.2 66 2.7 NW 19 26 10 14 1019.0 1018.8 0.2
30/04:00pm 8.6 2.8 2.2 64 2.9 NW 22 28 12 15 1019.7 1019.5 0.2
30/03:30pm 9.8 3.2 2.2 59 3.4 NW 26 35 14 19 1019.6 1019.3 0.2
30/03:00pm 9.9 2.5 2.0 58 3.5 WNW 30 39 16 21 1020.0 1019.8 0.2
30/02:30pm 10.4 3.3 1.2 53 4.1 NW 28 35 15 19 1020.1 1019.9 0.2
30/02:00pm 10.8 4.7 2.6 57 3.8 WNW 24 30 13 16 1020.4 1020.1 0.2
30/01:30pm 10.0 2.9 1.1 54 3.9 WNW 28 39 15 21 1020.9 1020.7 0.2
30/01:00pm 11.3 3.2 1.3 50 4.5 NW 33 44 18 24 1021.1 1020.9 0.2
30/12:30pm 10.9 2.3 0.0 47 4.7 NW 35 46 19 25 1021.6 1021.4 0.0
30/12:00pm 10.8 2.5 -0.3 46 4.8 NW 33 44 18 24 1022.2 1022.1 0.0
30/11:30am 11.1 3.5 0.5 48 4.7 NW 30 41 16 22 1022.8 1022.6 0.0
30/11:00am 10.1 1.9 -0.7 47 4.6 NW 32 39 17 21 1023.1 1023.0 0.0
30/10:30am 10.0 2.4 0.3 51 4.2 NW 30 39 16 21 1023.7 1023.6 0.0
30/10:00am 9.3 1.6 0.2 53 3.9 NW 30 41 16 22 1023.8 1023.7 0.0
30/09:30am 8.7 2.1 2.1 63 2.9 NNW 26 32 14 17 1023.9 1023.8 0.0
30/09:00am 7.7 3.0 3.0 72 2.1 NNW 17 26 9 14 1023.8 1023.7 0.0
30/08:30am 5.9 2.5 1.6 74 1.8 NW 9 11 5 6 1023.8 1023.7 0.0
30/08:00am 5.1 1.7 1.9 80 1.4 NNW 9 13 5 7 1023.7 1023.6 0.0
30/07:30am 3.9 -0.1 0.4 78 1.4 NNW 11 15 6 8 1023.5 1023.3 0.0
30/07:00am 3.7 0.1 0.6 80 1.3 NW 9 13 5 7 1023.4 1023.2 0.0
30/06:30am 1.6 -2.0 0.4 92 0.5 NNW 9 11 5 6 1023.4 1023.2 0.0
30/06:00am 0.7 -2.4 0.4 98 0.1 N 6 9 3 5 1023.2 1023.1 0.0
30/05:30am 0.8 -3.2 0.5 98 0.1 NNE 11 11 6 6 1023.1 1023.0 0.0
30/05:00am -0.4 -4.2 -1.0 96 0.2 NE 9 11 5 6 1023.0 1022.9 0.0
30/04:30am -1.0 -4.5 -1.3 98 0.1 NE 7 9 4 5 1023.0 1022.9 0.0
30/04:00am -1.7 -5.7 -2.1 97 0.1 NE 9 9 5 5 1023.2 1023.1 0.0
30/03:30am -1.1 -5.0 -1.8 95 0.2 NE 9 11 5 6 1023.5 1023.3 0.0
30/03:00am -0.6 -5.2 -0.9 98 0.1 ENE 13 15 7 8 1023.6 1023.4 0.0
30/02:30am -0.8 -5.1 -1.4 96 0.2 ENE 11 13 6 7 1023.9 1023.8 0.0
30/02:00am -1.1 -5.5 -2.4 91 0.4 NE 11 13 6 7 1024.1 1024.0 0.0
30/01:30am -0.1 -4.0 -1.2 92 0.4 ENE 9 11 5 6 1024.7 1024.6 0.0
30/01:00am 0.0 -4.4 -2.2 85 0.8 NNE 11 11 6 6 1024.9 1024.8 0.0
30/12:30am -0.7 -4.3 -2.0 91 0.4 NNE 7 9 4 5 1025.1 1025.0 0.0
30/12:00am -0.8 -5.2 -2.2 90 0.5 NNE 11 13 6 7 1025.1 1025.0 0.0
 
Date/Time
EST
Temp
°C
App
Temp
°C
Dew
Point
°C
Rel
Hum
%
Delta-T
°C
Wind Press
QNH
hPa
Press
MSL
hPa
Rain since
9am
mm
Dir  Spd
km/h
Gust
km/h
Spd
kts
Gust
kts
29/11:30pm 0.9 -3.6 -0.4 91 0.5 NE 13 15 7 8 1025.4 1025.3 0.0
29/11:00pm 1.0 -4.3 -0.5 90 0.6 NE 17 17 9 9 1025.5 1025.4 0.0
29/10:30pm 0.7 -4.3 -1.5 85 0.9 NE 15 17 8 9 1025.8 1025.7 0.0
29/10:00pm 1.7 -2.5 -1.2 81 1.1 ENE 11 13 6 7 1025.7 1025.6 0.0
29/09:30pm 3.7 0.0 -0.3 75 1.6 ENE 9 11 5 6 1025.9 1025.8 0.0
29/09:00pm 1.2 -3.1 -1.7 81 1.1 NE 11 13 6 7 1026.1 1026.1 0.0
29/08:30pm 2.8 -1.4 -1.2 75 1.6 NE 11 11 6 6 1026.2 1026.2 0.0
29/08:00pm 2.6 -1.7 -1.6 74 1.6 ENE 11 13 6 7 1026.4 1026.3 0.0
29/07:30pm 3.0 -1.7 -1.7 71 1.8 ENE 13 13 7 7 1026.4 1026.3 0.0
29/07:00pm 3.1 -1.3 -2.2 68 2.0 ENE 11 13 6 7 1026.2 1026.2 0.0
29/06:30pm 5.4 1.4 -2.2 58 3.0 E 9 11 5 6 1026.2 1026.2 0.0
29/06:00pm 6.2 2.8 -1.7 57 3.1 E 6 7 3 4 1026.0 1025.9 0.0
29/05:30pm 7.1 4.1 -1.6 54 3.5 NW 4 7 2 4 1025.9 1025.8 0.0
29/05:00pm 9.1 5.5 -2.2 45 4.6 SSE 7 11 4 6 1025.7 1025.6 0.0
29/04:30pm 10.7 6.9 -1.0 44 5.0 S 9 11 5 6 1025.6 1025.5 0.0
29/04:00pm 11.7 7.7 -2.1 38 5.7 S 9 11 5 6 1025.6 1025.5 0.0

Other Formats:

Comma delimited format used in spreadsheet applications
http://www.bom.gov.au/fwo/IDN60801/IDN60801.95773.axf

JavaScript Object Notation format (JSON) in row-major order
http://www.bom.gov.au/fwo/IDN60801/IDN60801.95773.json